Flight Track Log - Related Links

Times and Time Zones

All times are in EDT time to prevent confusion due to time zone crossing. See the EJA922 flight status page for this flight to view local times or setup timezone preferences in your user account.

Time Position Orientation Groundspeed Altitude Reporting Facility
EDT Latitude Longitude Course Direction KTS MPH feet Rate Location/Type
Sat 09:16:56 AM 42.7681 -73.8058 346° North 181 208 1,200  Level Boston Center
Sat 09:17:38 AM 42.8081 -73.8192 346° North 194 223 3,800 3,553 Climbing Boston Center
Sat 09:18:39 AM 42.8608 -73.8733 323° Northwest 239 275 7,300 3,443 Climbing Boston Center
Sat 09:19:40 AM 42.9225 -73.9347 324° Northwest 271 312 10,800 2,902 Climbing Boston Center
Sat 09:20:41 AM 43.0042 -74.0164 324° Northwest 341 392 13,200 2,182 Climbing Boston Center
Sat 09:21:41 AM 43.0636 -74.1256 307° West 366 421 15,200 1,872 Climbing Boston Center
Sat 09:22:46 AM 43.0728 -74.2717 275° West 386 444 17,100 1,728 Climbing Boston Center
Sat 09:23:46 AM 43.0811 -74.4325 274° West 393 452 18,800 1,850 Climbing Boston Center
Sat 09:24:46 AM 43.0881 -74.5817 274° West 396 456 20,800 1,736 Climbing Boston Center
Sat 09:25:47 AM 43.0958 -74.7342 274° West 401 461 22,300 1,440 Climbing Boston Center
Sat 09:26:51 AM 43.1039 -74.8931 274° West 414 476 23,800 1,500 Climbing Boston Center
Sat 09:27:51 AM 43.1119 -75.0556 274° West 423 487 25,400 1,525 Climbing Boston Center
Sat 09:28:53 AM 43.1194 -75.2211 274° West 431 496 26,900 1,475 Climbing Boston Center
Sat 09:29:53 AM 43.1264 -75.3889 273° West 434 499 28,400 1,488 Climbing Boston Center
Sat 09:30:54 AM 43.1344 -75.5594 274° West 441 507 29,900 1,426 Climbing Boston Center
Sat 09:31:55 AM 43.1419 -75.7297 274° West 446 513 31,300 1,220 Climbing Boston Center
Sat 09:32:57 AM 43.1492 -75.9022 273° West 451 519 32,400 1,008 Climbing Boston Center
Sat 09:34:00 AM 43.1564 -76.0794 273° West 463 533 33,400 774 Climbing Boston Center
Sat 09:35:01 AM 43.1442 -76.2597 265° West 479 551 34,000 545 Climbing Boston Center
Sat 09:36:01 AM 43.0747 -76.4761 246° West 514 592 34,500 836 Climbing Boston Center
Sat 09:37:03 AM 43.0239 -76.6353 246° West 513 590 35,700 1,317 Climbing Boston Center
Sat 09:38:04 AM 42.9678 -76.8092 246° West 503 579 37,200 1,440 Climbing Boston Center
Sat 09:39:08 AM 42.9261 -76.9833 252° West 485 558 38,700 1,302 Climbing Boston Center
Sat 09:40:13 AM 42.9056 -77.1922 262° West 470 541 40,000 614 Climbing Cleveland Center
Sat 09:41:15 AM 42.8881 -77.3681 262° West 471 542 40,000  Level Cleveland Center
Sat 09:42:16 AM 42.8714 -77.5489 263° West 483 556 40,000  Level Cleveland Center
Sat 09:43:18 AM 42.8489 -77.7683 262° West 495 570 40,000  Level Cleveland Center
Sat 09:44:20 AM 42.8303 -77.9528 262° West 498 573 40,000  Level Cleveland Center
Sat 09:45:22 AM 42.8111 -78.1369 262° West 496 571 40,000  Level Cleveland Center
Sat 09:46:24 AM 42.7914 -78.3214 262° West 496 571 40,000  Level Cleveland Center
Sat 09:47:25 AM 42.7672 -78.5456 262° West 501 577 40,000  Level Cleveland Center
Sat 09:48:27 AM 42.7472 -78.7308 262° West 500 575 40,000  Level Cleveland Center
Sat 09:49:29 AM 42.7258 -78.9169 261° West 500 575 40,000  Level Cleveland Center
Sat 09:50:31 AM 42.7061 -79.1008 262° West 495 570 40,000  Level Cleveland Center
Sat 09:51:33 AM 42.6836 -79.2861 261° West 497 572 40,000  Level Cleveland Center
Sat 09:52:34 AM 42.6628 -79.4719 261° West 500 575 40,000  Level Cleveland Center
Sat 09:53:36 AM 42.6403 -79.6581 261° West 501 577 40,000  Level Cleveland Center
Sat 09:54:38 AM 42.6136 -79.8808 261° West 498 573 40,000  Level Cleveland Center
Sat 09:55:40 AM 42.5889 -80.0617 260° West 505 581 40,000  Level Cleveland Center
Sat 09:56:42 AM 42.5669 -80.2478 261° West 500 575 40,000  Level Cleveland Center
Sat 09:57:44 AM 42.5431 -80.4344 260° West 500 575 40,000  Level Cleveland Center
Sat 09:58:46 AM 42.5192 -80.6206 260° West 499 574 40,000  Level Cleveland Center
Sat 09:59:48 AM 42.4967 -80.8133 261° West 513 590 40,000  Level Cleveland Center
Sat 10:00:49 AM 42.4672 -81.0308 260° West 505 581 40,000  Level Cleveland Center
Sat 10:01:53 AM 42.4431 -81.2186 260° West 504 580 40,000  Level Cleveland Center
Sat 10:02:53 AM 42.4183 -81.4069 260° West 505 581 40,000  Level Cleveland Center
Sat 10:03:55 AM 42.3928 -81.5933 260° West 503 579 40,000  Level Cleveland Center
Sat 10:04:57 AM 42.3664 -81.7797 259° West 503 579 40,000  Level Cleveland Center
Sat 10:05:59 AM 42.3408 -81.9678 260° West 505 581 40,000  Level Cleveland Center
Sat 10:07:01 AM 42.3128 -82.1661 259° West 505 581 40,000  Level Cleveland Center
Sat 10:08:03 AM 42.2858 -82.3514 259° West 503 579 40,000  Level Cleveland Center
Sat 10:09:05 AM 42.2592 -82.5367 259° West 504 580 40,000  Level Cleveland Center
Sat 10:10:07 AM 42.2325 -82.7236 259° West 506 582 40,000  Level Cleveland Center
Sat 10:11:08 AM 42.1992 -82.9475 259° West 508 585 40,000  Level Cleveland Center
Sat 10:12:10 AM 42.1706 -83.1347 258° West 509 586 40,000  Level Cleveland Center
Sat 10:13:12 AM 42.1433 -83.3111 258° West 510 587 40,000  Level Cleveland Center
Sat 10:14:14 AM 42.1133 -83.5006 258° West 512 589 40,000  Level Cleveland Center
Sat 10:15:16 AM 42.0836 -83.7064 259° West 508 585 40,000  Level Cleveland Center
Sat 10:16:18 AM 42.0539 -83.8936 258° West 509 586 40,000  Level Cleveland Center
Sat 10:17:20 AM 42.0258 -84.0797 259° West 507 583 40,000  Level Cleveland Center
Sat 10:18:22 AM 41.9936 -84.2842 258° West 509 586 40,000  Level Cleveland Center
Sat 10:19:24 AM 41.9633 -84.4689 258° West 509 586 40,000  Level Cleveland Center
Sat 10:20:26 AM 41.9342 -84.6536 258° West 508 585 40,000  Level Cleveland Center
Sat 10:21:28 AM 41.9036 -84.8392 258° West 511 588 40,000  Level Cleveland Center
Sat 10:22:30 AM 41.8664 -85.0592 257° West 508 585 40,000  Level Cleveland Center
Sat 10:23:32 AM 41.8358 -85.2422 257° West 508 585 40,000  Level Cleveland Center
Sat 10:24:34 AM 41.8000 -85.4397 256° West 510 587 40,000  Level Cleveland Center
Sat 10:25:36 AM 41.7672 -85.6247 257° West 511 588 40,000  Level Cleveland Center
Sat 10:26:38 AM 41.7342 -85.8222 257° West 510 587 40,000  Level Cleveland Center
Sat 10:27:40 AM 41.7017 -86.0047 257° West 507 583 40,000  Level Cleveland Center
Sat 10:28:43 AM 41.6686 -86.1867 256° West 506 582 40,000  Level Cleveland Center
Sat 10:29:45 AM 41.6347 -86.3719 256° West 513 590 40,000  Level Cleveland Center
Sat 10:31:09 AM 41.5867 -86.6292 256° West 510 587 40,000  Level Chicago Center
Sat 10:32:11 AM 41.5517 -86.8119 256° West 505 581 40,000  Level Chicago Center
Sat 10:33:13 AM 41.5106 -87.0336 256° West 513 590 40,000  Level Chicago Center
Sat 10:34:15 AM 41.4756 -87.2167 256° West 513 590 40,000  Level Chicago Center
Sat 10:35:17 AM 41.4406 -87.4025 256° West 517 595 40,000  Level Chicago Center
Sat 10:36:18 AM 41.4061 -87.5878 256° West 518 596 40,000  Level Chicago Center
Sat 10:37:20 AM 41.3697 -87.7717 255° West 516 594 40,000  Level Chicago Center
Sat 10:38:22 AM 41.3325 -87.9642 256° West 530 610 40,000  Level Chicago Center
Sat 10:39:24 AM 41.2931 -88.1589 255° West 525 604 40,000  Level Chicago Center
Sat 10:40:26 AM 41.2564 -88.3469 256° West 523 602 40,000  Level Chicago Center
Sat 10:41:28 AM 41.2108 -88.5694 255° West 522 601 40,000  Level Chicago Center
Sat 10:42:30 AM 41.1731 -88.7547 255° West 522 601 40,000  Level Chicago Center
Sat 10:43:32 AM 41.1358 -88.9417 255° West 525 604 40,000  Level Chicago Center
Sat 10:44:34 AM 41.0975 -89.1272 255° West 526 605 40,000  Level Chicago Center
Sat 10:45:36 AM 41.0544 -89.3303 254° West 527 606 40,000  Level Chicago Center
Sat 10:46:38 AM 41.0158 -89.5147 255° West 524 603 40,000  Level Chicago Center
Sat 10:47:40 AM 40.9722 -89.7222 255° West 526 605 40,000  Level Chicago Center
Sat 10:48:43 AM 40.9339 -89.9083 255° West 526 605 40,000  Level Chicago Center
Sat 10:49:44 AM 40.8908 -90.0889 253° West 516 594 40,000  Level Chicago Center
Sat 10:50:46 AM 40.8469 -90.2822 253° West 520 598 40,000  Level Chicago Center
Sat 10:51:48 AM 40.8097 -90.4656 255° West 519 597 40,000  Level Chicago Center
Sat 10:52:50 AM 40.7669 -90.6503 253° West 526 605 40,000  Level Chicago Center
Sat 10:53:52 AM 40.7256 -90.8328 253° West 524 603 40,000  Level Chicago Center
Sat 10:54:54 AM 40.6761 -91.0503 253° West 519 597 40,000  Level Chicago Center
Sat 10:55:56 AM 40.6344 -91.2300 253° West 515 593 40,000  Level Chicago Center
Sat 10:56:58 AM 40.5956 -91.4039 254° West 515 593 40,000  Level Chicago Center
Sat 10:58:00 AM 40.5533 -91.5833 253° West 516 594 40,000  Level Chicago Center
Sat 10:59:02 AM 40.5100 -91.7603 252° West 514 592 40,000  Level Chicago Center
Sat 11:00:04 AM 40.4614 -91.9736 253° West 512 589 40,000  Level Chicago Center
Sat 11:01:06 AM 40.4189 -92.1528 253° West 518 596 40,000  Level Chicago Center
Sat 11:02:08 AM 40.3756 -92.3300 252° West 516 594 40,000  Level Chicago Center
Sat 11:03:10 AM 40.3289 -92.5261 253° West 521 600 40,000  Level Chicago Center
Sat 11:04:12 AM 40.2869 -92.7003 253° West 522 601 40,000  Level Chicago Center
Sat 11:05:14 AM 40.2386 -92.8903 252° West 525 604 40,000  Level Chicago Center
Sat 11:06:16 AM 40.1942 -93.0675 252° West 519 597 40,000  Level Chicago Center
Sat 11:07:18 AM 40.1508 -93.2469 253° West 521 600 40,000  Level Chicago Center
Sat 11:08:19 AM 40.0978 -93.4578 252° West 515 593 40,000  Level Chicago Center
Sat 11:09:21 AM 40.0531 -93.6339 252° West 514 592 40,000  Level Chicago Center
Sat 11:10:23 AM 40.0069 -93.8089 251° West 515 593 40,000  Level Chicago Center
Sat 11:11:25 AM 39.9628 -93.9847 252° West 515 593 40,000  Level Chicago Center
Sat 11:12:49 AM 39.8975 -94.2289 251° West 513 590 40,000  Level Kansas Center
Sat 11:13:49 AM 39.8461 -94.4261 251° West 516 594 40,000  Level Kansas Center
Sat 11:14:50 AM 39.8025 -94.5953 251° West 516 594 40,000  Level Kansas Center
Sat 11:15:54 AM 39.7503 -94.7914 251° West 517 595 40,000  Level Kansas Center
Sat 11:16:54 AM 39.7058 -94.9569 251° West 511 588 40,000  Level Kansas Center
Sat 11:17:58 AM 39.6531 -95.1525 251° West 510 587 40,000  Level Kansas Center
Sat 11:18:59 AM 39.6092 -95.3153 251° West 511 588 40,000  Level Kansas Center
Sat 11:20:01 AM 39.5561 -95.5083 250° West 514 592 40,000  Level Kansas Center
Sat 11:21:04 AM 39.5106 -95.6753 251° West 516 594 40,000  Level Kansas Center
Sat 11:22:05 AM 39.4553 -95.8697 250° West 518 596 40,000  Level Kansas Center
Sat 11:23:09 AM 39.4086 -96.0356 250° West 516 594 40,000  Level Kansas Center
Sat 11:24:10 AM 39.3600 -96.2039 250° West 518 596 40,000  Level Kansas Center
Sat 11:25:14 AM 39.3103 -96.3792 250° West 521 600 40,000  Level Kansas Center
Sat 11:26:14 AM 39.2489 -96.5936 250° West 521 600 40,000  Level Kansas Center
Sat 11:27:14 AM 39.2017 -96.7608 250° West 520 598 40,000  Level Kansas Center
Sat 11:28:18 AM 39.1525 -96.9275 249° West 520 598 40,000  Level Kansas Center
Sat 11:29:19 AM 39.0961 -97.1225 250° West 521 600 40,000  Level Kansas Center
Sat 11:30:23 AM 39.0492 -97.2925 250° West 525 604 40,000  Level Kansas Center
Sat 11:31:23 AM 38.9917 -97.4853 249° West 519 597 40,000  Level Kansas Center
Sat 11:32:27 AM 38.9417 -97.6494 249° West 515 593 40,000  Level Kansas Center
Sat 11:33:27 AM 38.8847 -97.8403 249° West 513 590 40,000 443 Level Kansas Center
Sat 11:34:29 AM 38.8364 -98.0061 250° West 509 586 40,900 927 Climbing Kansas Center
Sat 11:35:30 AM 38.7872 -98.1675 249° West 493 567 41,900 864 Climbing Kansas Center
Sat 11:36:34 AM 38.7386 -98.3269 249° West 484 557 42,700 528 Climbing Kansas Center
Sat 11:37:35 AM 38.6892 -98.4881 249° West 487 560 43,000 144 Climbing Kansas Center
Sat 11:38:39 AM 38.6286 -98.6850 249° West 497 572 43,000  Level Kansas Center
Sat 11:39:39 AM 38.5778 -98.8506 249° West 502 578 43,000  Level Kansas Center
Sat 11:40:42 AM 38.5261 -99.0158 248° West 504 580 43,000  Level Kansas Center
Sat 11:41:42 AM 38.4736 -99.1828 248° West 506 582 43,000  Level Kansas Center
Sat 11:42:46 AM 38.4228 -99.3478 249° West 504 580 43,000  Level Kansas Center
Sat 11:43:46 AM 38.3589 -99.5472 248° West 503 579 43,000  Level Kansas Center
Sat 11:44:50 AM 38.3086 -99.7039 248° West 501 577 43,000  Level Kansas Center
Sat 11:45:51 AM 38.2583 -99.8614 248° West 502 578 43,000  Level Kansas Center
Sat 11:46:52 AM 38.1994 -100.0431 248° West 500 575 43,000  Level Kansas Center
Sat 11:47:55 AM 38.1489 -100.1958 247° West 495 570 43,000  Level Kansas Center
Sat 11:48:56 AM 38.0906 -100.3744 248° West 492 566 43,000  Level Kansas Center
Sat 11:49:59 AM 38.0397 -100.5272 247° West 492 566 43,000  Level Kansas Center
Sat 11:50:59 AM 37.9819 -100.7022 247° West 487 560 43,000  Level Kansas Center
Sat 11:52:03 AM 37.9317 -100.8514 247° West 487 560 43,000  Level Kansas Center
Sat 11:53:04 AM 37.8731 -101.0253 247° West 488 562 43,000  Level Kansas Center
Sat 11:54:05 AM 37.8225 -101.1733 247° West 487 560 43,000  Level Kansas Center
Sat 11:55:09 AM 37.7636 -101.3456 247° West 483 556 43,000  Level Kansas Center
Sat 11:56:10 AM 37.7125 -101.4931 246° West 482 555 43,000  Level Kansas Center
Sat 11:57:11 AM 37.6539 -101.6653 247° West 481 554 43,000  Level Kansas Center
Sat 11:58:12 AM 37.6031 -101.8128 247° West 480 552 43,000  Level Kansas Center
Sat 11:59:16 AM 37.5431 -101.9864 246° West 483 556 43,000  Level Kansas Center
Sat 12:00:18 PM 37.4914 -102.1350 246° West 485 558 43,000  Level Kansas Center
Sat 12:01:19 PM 37.4300 -102.3092 246° West 487 560 43,000  Level Kansas Center
Sat 12:02:22 PM 37.3772 -102.4581 246° West 487 560 43,000  Level Kansas Center
Sat 12:03:23 PM 37.3158 -102.6336 246° West 492 566 43,000  Level Kansas Center
Sat 12:04:25 PM 37.2611 -102.7844 246° West 494 568 43,000  Level Kansas Center
Sat 12:05:26 PM 37.1989 -102.9592 246° West 493 567 43,000  Level Kansas Center
Sat 12:06:42 PM 37.1333 -103.1444 246° West 488 562 43,000  Level Albuquerque Center
Sat 12:07:44 PM 37.0700 -103.3189 246° West 490 564 43,000  Level Albuquerque Center
Sat 12:08:45 PM 37.0164 -103.4667 246° West 488 562 43,000  Level Albuquerque Center
Sat 12:09:47 PM 36.9617 -103.6169 246° West 491 565 43,000  Level Albuquerque Center
Sat 12:10:48 PM 36.8978 -103.7914 245° Southwest 492 566 43,000  Level Albuquerque Center
Sat 12:11:50 PM 36.8431 -103.9386 245° Southwest 489 563 43,000  Level Albuquerque Center
Sat 12:12:51 PM 36.7886 -104.0861 245° Southwest 488 562 43,000  Level Albuquerque Center
Sat 12:13:53 PM 36.7253 -104.2558 245° Southwest 483 556 43,000  Level Albuquerque Center
Sat 12:14:55 PM 36.6728 -104.3936 245° Southwest 479 551 43,000  Level Albuquerque Center
Sat 12:15:56 PM 36.6064 -104.5700 245° Southwest 479 551 43,000  Level Albuquerque Center
Sat 12:16:58 PM 36.5489 -104.7219 245° Southwest 480 552 43,000  Level Albuquerque Center
Sat 12:17:59 PM 36.4922 -104.8750 245° Southwest 483 556 43,000  Level Albuquerque Center
Sat 12:19:01 PM 36.4528 -105.0344 253° West 481 554 43,000  Level Albuquerque Center
Sat 12:20:03 PM 36.4156 -105.1958 254° West 483 556 43,000  Level Albuquerque Center
Sat 12:21:04 PM 36.3747 -105.3600 253° West 491 565 43,000  Level Albuquerque Center
Sat 12:22:06 PM 36.3361 -105.5231 254° West 490 564 43,000  Level Albuquerque Center
Sat 12:23:07 PM 36.3011 -105.6725 254° West 488 562 43,000  Level Albuquerque Center
Sat 12:24:09 PM 36.2550 -105.8642 253° West 487 560 43,000  Level Albuquerque Center
Sat 12:25:11 PM 36.2172 -106.0219 254° West 484 557 43,000  Level Albuquerque Center
Sat 12:26:12 PM 36.1781 -106.1775 253° West 481 554 43,000  Level Albuquerque Center
Sat 12:27:14 PM 36.1400 -106.3336 253° West 479 551 43,000  Level Albuquerque Center
Sat 12:28:15 PM 36.1008 -106.4892 253° West 478 550 43,000  Level Albuquerque Center
Sat 12:29:17 PM 36.0553 -106.6658 252° West 471 542 43,000  Level Albuquerque Center
Sat 12:30:18 PM 36.0175 -106.8164 253° West 476 548 43,000  Level Albuquerque Center
Sat 12:31:20 PM 35.9733 -106.9922 253° West 479 551 43,000  Level Albuquerque Center
Sat 12:32:22 PM 35.9344 -107.1431 252° West 482 555 43,000  Level Albuquerque Center
Sat 12:33:23 PM 35.8967 -107.2947 253° West 482 555 43,000  Level Albuquerque Center
Sat 12:34:25 PM 35.8506 -107.4731 252° West 486 559 43,000  Level Albuquerque Center
Sat 12:35:27 PM 35.8097 -107.6267 252° West 490 564 43,000  Level Albuquerque Center
Sat 12:36:28 PM 35.7628 -107.8072 252° West 494 568 43,000  Level Albuquerque Center
Sat 12:37:30 PM 35.7225 -107.9608 252° West 493 567 43,000  Level Albuquerque Center
Sat 12:38:32 PM 35.6817 -108.1136 252° West 490 564 43,000  Level Albuquerque Center
Sat 12:39:33 PM 35.6347 -108.2889 252° West 485 558 43,000  Level Albuquerque Center
Sat 12:40:35 PM 35.5947 -108.4383 252° West 481 554 43,000  Level Albuquerque Center
Sat 12:41:37 PM 35.5197 -108.5964 240° Southwest 477 549 43,000  Level Albuquerque Center
Sat 12:42:38 PM 35.4428 -108.7242 234° Southwest 480 552 43,000  Level Albuquerque Center
Sat 12:43:40 PM 35.3672 -108.8506 234° Southwest 479 551 43,000  Level Albuquerque Center
Sat 12:44:41 PM 35.2778 -108.9975 233° Southwest 479 551 43,000  Level Albuquerque Center
Sat 12:45:43 PM 35.2025 -109.1231 234° Southwest 477 549 43,000  Level Albuquerque Center
Sat 12:46:45 PM 35.1147 -109.2678 233° Southwest 475 547 43,000  Level Albuquerque Center
Sat 12:47:47 PM 35.0397 -109.3922 234° Southwest 475 547 43,000  Level Albuquerque Center
Sat 12:48:48 PM 34.9642 -109.5164 233° Southwest 475 547 43,000  Level Albuquerque Center
Sat 12:49:50 PM 34.8767 -109.6619 234° Southwest 476 548 43,000  Level Albuquerque Center
Sat 12:50:52 PM 34.8008 -109.7850 233° Southwest 473 544 43,000  Level Albuquerque Center
Sat 12:51:53 PM 34.7133 -109.9289 234° Southwest 473 544 43,000  Level Albuquerque Center
Sat 12:52:55 PM 34.6381 -110.0519 233° Southwest 473 544 43,000  Level Albuquerque Center
Sat 12:53:57 PM 34.5536 -110.1997 235° Southwest 475 547 43,000  Level Albuquerque Center
Sat 12:54:59 PM 34.4756 -110.3131 230° Southwest 462 532 43,000  Level Albuquerque Center
Sat 12:56:00 PM 34.4008 -110.4378 234° Southwest 469 540 43,000  Level Albuquerque Center
Sat 12:57:02 PM 34.3253 -110.5628 234° Southwest 464 534 43,000  Level Albuquerque Center
Sat 12:58:04 PM 34.2322 -110.7019 231° Southwest 465 535 43,000  Level Albuquerque Center
Sat 12:59:05 PM 34.1647 -110.8092 233° Southwest 467 537 43,000  Level Albuquerque Center
Sat 01:00:07 PM 34.0717 -110.9572 233° Southwest 463 533 43,000  Level Albuquerque Center
Sat 01:01:09 PM 33.9939 -111.0806 233° Southwest 461 531 43,000  Level Albuquerque Center
Sat 01:02:11 PM 33.9158 -111.2025 232° Southwest 460 529 43,000  Level Albuquerque Center
Sat 01:03:12 PM 33.8364 -111.3258 232° Southwest 463 533 43,000  Level Albuquerque Center
Sat 01:04:14 PM 33.7578 -111.4489 232° Southwest 460 529 43,000  Level Albuquerque Center
Sat 01:05:16 PM 33.6789 -111.5719 232° Southwest 460 529 43,000  Level Albuquerque Center
Sat 01:06:18 PM 33.5983 -111.6944 232° Southwest 462 532 43,000  Level Albuquerque Center
Sat 01:07:19 PM 33.5192 -111.8183 233° Southwest 465 535 43,000  Level Albuquerque Center
Sat 01:08:21 PM 33.4422 -111.9419 233° Southwest 462 532 43,000  Level Albuquerque Center
Sat 01:09:23 PM 33.4053 -112.1250 256° West 468 539 43,000  Level Albuquerque Center
Sat 01:10:25 PM 33.3781 -112.2772 258° West 468 539 43,000  Level Albuquerque Center
Sat 01:11:26 PM 33.3508 -112.4317 258° West 471 542 43,000  Level Albuquerque Center
Sat 01:12:28 PM 33.3233 -112.5831 258° West 467 537 43,000 -49 Level Albuquerque Center
Sat 01:13:29 PM 33.2967 -112.7311 258° West 467 537 42,900  Descending Albuquerque Center
Sat 01:14:31 PM 33.2686 -112.8825 258° West 469 540 43,000  Climbing Albuquerque Center
Sat 01:15:33 PM 33.2342 -113.0658 257° West 472 543 42,900  Descending Albuquerque Center
Sat 01:16:34 PM 33.2058 -113.2172 257° West 472 543 43,000 49 Climbing Albuquerque Center
Sat 01:17:36 PM 33.1769 -113.3681 257° West 471 542 43,000  Level Albuquerque Center
Sat 01:19:17 PM 33.1303 -113.6164 257° West 472 543 43,000  Level Los Center
Sat 01:20:19 PM 33.1011 -113.7678 257° West 471 542 43,000  Level Los Center
Sat 01:21:21 PM 33.0706 -113.9197 257° West 471 542 43,000 -581 Level Los Center
Sat 01:22:23 PM 33.0367 -114.1003 257° West 466 536 41,800 -1,113 Descending Los Center
Sat 01:23:25 PM 33.0050 -114.2514 256° West 469 540 40,700 -1,016 Descending Los Center
Sat 01:24:27 PM 32.9758 -114.4031 257° West 469 540 39,700 -968 Descending Los Center
Sat 01:25:29 PM 32.9461 -114.5519 257° West 466 536 38,700 -968 Descending Los Center
Sat 01:26:31 PM 32.9161 -114.7000 256° West 462 532 37,700 -1,344 Descending Los Center
Sat 01:27:34 PM 32.8850 -114.8517 256° West 469 540 35,900 -2,064 Descending Los Center
Sat 01:28:36 PM 32.8464 -115.0431 257° West 492 566 33,400 -2,177 Descending Los Center
Sat 01:29:38 PM 32.8125 -115.2019 256° West 495 570 31,400 -1,694 Descending Los Center
Sat 01:30:40 PM 32.8486 -115.3672 285° West 527 606 29,900 -1,306 Descending Los Center
Sat 01:31:42 PM 32.8839 -115.5314 284° West 516 594 28,700 -1,452 Descending Los Center
Sat 01:32:44 PM 32.8808 -115.6994 269° West 509 586 26,900 -2,516 Descending Los Center
Sat 01:33:46 PM 32.8800 -115.8878 270° West 480 552 23,500 -3,290 Descending Los Center
Sat 01:34:48 PM 32.8536 -116.0333 258° West 452 520 20,100 -3,145 Descending Los Center
Sat 01:35:50 PM 32.8181 -116.1719 253° West 438 504 17,000 -2,952 Descending Los Center
Sat 01:36:52 PM 32.7842 -116.3072 253° West 423 487 14,000 -2,952 Descending Los Center
Sat 01:37:54 PM 32.7497 -116.4394 253° West 412 474 10,900 -1,968 Descending Los Center
Sat 01:38:57 PM 32.7236 -116.5686 257° West 400 460 9,900 -480 Descending Los Center
Sat 01:39:59 PM 32.7106 -116.6850 262° West 360 414 9,900 -871 Level Los Center
Sat 01:41:01 PM 32.7089 -116.7778 269° West 294 338 8,100 -2,032 Descending Los Center
Sat 01:42:03 PM 32.6939 -116.8622 258° West 271 312 5,700 -2,186 Descending Los Center
Sat 01:42:59 PM 32.6833 -116.9500 262° West 266 306 3,800 -1,190 Descending Southern TRACON
Sat 01:43:59 PM 32.7000 -117.0333 283° West 234 269 3,400 -895 Descending Southern TRACON
Sat 01:44:53 PM 32.7167 -117.0833 292° West 187 215 2,100 -1,211 Descending Southern TRACON
Sat 01:45:53 PM 32.7167 -117.1333 270° West 135 155 1,100 -793 Descending Southern TRACON
Sat 01:46:54 PM 32.7333 -117.1667 301° West 124 143 500 -590 Descending Southern TRACON
Sat 01:49:00 PM 32.7333 -117.1833 281° West  Level FlightAware
Sat 01:56:00 PM 32.7336 -117.1897 281° West  Level Estimated

Login

Don't have an account? Register now (free) for customized features, flight alerts, and more!